35分钟前
罗盘
风向 的 风向 260° Rheine-Eschendorf Airport 11/29
风: 9 千吨, 3 beaufort
0 500 1.500 3.000 5.000 8.000 10.000
FEW 500 ft
BKN 800 ft
OVC 1.800 ft
METAR EDDG 041950Z 26009KT 8000 -RADZ FEW005 BKN008 OVC018 05/04 Q0995 TEMPO BKN015

METAR定义 | 嵌入

24小时趋势

航班类别VFRLIFR
温度5 °C3 °C
风速10 千吨0 千吨
能见度10 公里+0 米

更多历史数据

下载我们的安卓应用程序

从你的主屏幕上轻松地访问你的航空天气。
只需一次付费,您就可以获得无广告的体验。

您会帮助我们保持Metar-Taf.com正常运行吗?
您的贡献有助于网站的进一步开发并支付费用。

没有更多广告

您是捐款5美元还是更多?然后,我们将永远不会再向您展示广告,这是我们永恒的感谢!
捐赠前先登录

METAR Rheine-Eschendorf Airport

Rheine-Eschendorf Airport是Rheine,德国中的小机场。 机场有{a,plural,=1{一条跑道} other{#跑道}}: 11/29

Rheine-Eschendorf Airport最近未发布观察结果。相反,我们向您显示20 km的报告Münster Osnabrück Airport。 该报告是针对2021年12月4日 20:50, 当地时间进行的。

机场观察

风来自西 (260°)方向,速度为9 千吨。

可见度为8 公里。

有几云在500 ft的高度, 碎云在800 ft的高度 和 乌云密布在1.800 ft的高度。 破损或更高的上限为800 ft。

当前天气为光 雨 细雨。 温度为5 °C,阵风为0 °C。 露点为4 °C,相对湿度为93%。 海平面上的气压为995 压力 (QNH)。

发展趋势

  • 暂时的

    可变方向的风很小或没有。 碎云在1.500 ft的高度.

白天

今天,太阳从08:21升起,在16:19降落。 这适用于Rheine-Eschendorf Airport,世界夏令时可能有所不同。 当地时间与世界标准时间之间的时差为+1 小时。 当前,没有夏令时有效。

公司介绍

在这个机场,你可以找到跳伞中心。 本场上唯一已知的公司是FSC Rheine。

体会

到Vliegles.nl去找飞行课程,跳伞和其他飞行体验。 浏览页面,了解Rheine-Eschendorf Airport附近所有可用的活动。 你也可以使用搜索功能来寻找你所在地附近的特定飞行课程、跳伞或其他飞行体验。

您是否要在网站上Rheine-Eschendorf Airport飞行的天气? 阅读更多   自由!